Time;durP1;ratioP1;P1;durP2;ratioP2;P2;SDS_P1;SDS_P2;PMS_P1;PMS_P2;Temp;Humidity;BMP_temperature;BMP_pressure;BME280_temperature;BME280_humidity;BME280_pressure;Samples;Min_cycle;Max_cycle;Signal;HPM_P1;HPM_P2
2022/01/25 00:10:24;;;;;;;7.30;5.93;;;;;;;-1.78;100.00;97230.41;5071498;28;25005;-73
2022/01/25 00:26:40;;;;;;;8.50;6.60;;;;;;;-2.32;100.00;97218.00;5053293;28;24433;-72
2022/01/25 00:29:10;;;;;;;8.18;6.07;;;;;;;-2.37;100.00;97217.97;5059726;28;24438;-73
2022/01/25 00:31:40;;;;;;;9.03;6.03;;;;;;;-2.29;100.00;97215.53;5051260;28;24525;-72
2022/01/25 00:34:09;;;;;;;8.93;6.30;;;;;;;-2.34;100.00;97212.06;5051065;28;24559;-72
2022/01/25 00:36:36;;;;;;;10.57;6.90;;;;;;;-2.38;100.00;97212.88;5050692;28;24983;-73
2022/01/25 00:39:04;;;;;;;7.97;6.80;;;;;;;-2.40;100.00;97212.00;5051103;28;24785;-72
2022/01/25 00:41:30;;;;;;;9.05;7.05;;;;;;;-2.50;100.00;97216.13;5051160;28;24438;-72
2022/01/25 00:43:59;;;;;;;8.27;7.22;;;;;;;-2.55;100.00;97212.69;5050876;28;24419;-73
2022/01/25 00:46:26;;;;;;;14.07;9.43;;;;;;;-2.62;100.00;97214.28;5050542;28;24900;-72
2022/01/25 00:48:56;;;;;;;13.32;9.98;;;;;;;-2.60;100.00;97209.22;5050600;28;24430;-73
2022/01/25 00:51:57;;;;;;;11.07;9.35;;;;;;;-2.47;100.00;97214.47;5051164;28;24510;-73
2022/01/25 00:54:31;;;;;;;12.52;8.13;;;;;;;-2.33;100.00;97219.72;5050607;28;24784;-73
2022/01/25 00:56:58;;;;;;;9.52;8.30;;;;;;;-2.24;100.00;97227.41;5050332;28;24432;-73
2022/01/25 00:59:27;;;;;;;9.88;7.55;;;;;;;-2.17;100.00;97215.63;5058754;28;24534;-73
2022/01/25 01:01:55;;;;;;;7.10;5.82;;;;;;;-2.09;100.00;97223.31;5050720;28;24418;-72
2022/01/25 01:04:22;;;;;;;9.50;7.13;;;;;;;-2.01;100.00;97216.63;5050271;28;24473;-73
2022/01/25 01:06:51;;;;;;;9.15;6.90;;;;;;;-1.79;100.00;97221.06;5049697;28;24422;-73
2022/01/25 01:09:21;;;;;;;9.80;7.10;;;;;;;-1.85;100.00;97213.41;5050297;28;24427;-73
2022/01/25 01:11:57;;;;;;;10.13;6.78;;;;;;;-2.06;100.00;97211.50;5050890;28;24518;-72
2022/01/25 01:14:38;;;;;;;12.47;7.50;;;;;;;-2.28;100.00;97223.13;5050513;28;24441;-73
2022/01/25 01:17:30;;;;;;;11.93;6.80;;;;;;;-2.37;100.00;97214.56;5050611;28;24411;-73
2022/01/25 01:31:05;;;;;;;14.82;9.07;;;;;;;-2.66;100.00;97227.78;5050162;28;24690;-73
2022/01/25 01:34:02;;;;;;;13.52;8.57;;;;;;;-2.79;100.00;97230.97;5050333;28;24442;-73
2022/01/25 01:42:16;;;;;;;11.60;9.43;;;;;;;-2.88;100.00;97221.59;5037038;28;24534;-73
2022/01/25 01:45:05;;;;;;;10.52;8.30;;;;;;;-2.89;100.00;97217.34;5050237;28;24419;-72
2022/01/25 01:47:38;;;;;;;9.75;7.65;;;;;;;-2.90;100.00;97220.69;5049766;28;24457;-73
2022/01/25 01:50:09;;;;;;;9.77;6.88;;;;;;;-2.89;100.00;97219.88;5049926;28;24433;-73
2022/01/25 01:52:36;;;;;;;8.27;6.70;;;;;;;-2.84;100.00;97225.00;5050099;28;24429;-73
2022/01/25 01:55:04;;;;;;;11.70;6.80;;;;;;;-2.83;100.00;97230.09;5058081;28;25061;-73
2022/01/25 01:57:31;;;;;;;6.93;6.20;;;;;;;-2.75;100.00;97225.13;5064083;28;24464;-73
2022/01/25 01:59:57;;;;;;;8.52;6.53;;;;;;;-2.62;100.00;97226.97;5070085;28;24815;-73
2022/01/25 02:02:24;;;;;;;10.93;6.80;;;;;;;-2.63;100.00;97224.41;5070125;28;24906;-72
2022/01/25 02:04:50;;;;;;;8.95;6.63;;;;;;;-2.87;100.00;97225.81;5069991;28;24418;-73
2022/01/25 02:07:17;;;;;;;12.23;6.40;;;;;;;-2.98;100.00;97222.28;5070099;28;24430;-74
2022/01/25 02:09:44;;;;;;;8.38;6.63;;;;;;;-3.03;100.00;97218.84;5063090;28;24516;-73
2022/01/25 02:12:11;;;;;;;8.23;6.93;;;;;;;-2.99;100.00;97221.44;5049628;28;24983;-73
2022/01/25 02:14:40;;;;;;;9.65;7.15;;;;;;;-2.95;100.00;97213.03;5051189;28;25091;-73
2022/01/25 02:17:13;;;;;;;8.43;7.20;;;;;;;-2.93;100.00;97220.66;5059283;28;24481;-73
2022/01/25 02:22:33;;;;;;;9.70;6.93;;;;;;;-2.74;100.00;97227.69;5053380;28;24418;-73
2022/01/25 02:25:00;;;;;;;9.98;7.63;;;;;;;-2.60;100.00;97221.91;5053549;28;24434;-73
2022/01/25 02:27:27;;;;;;;8.43;6.25;;;;;;;-2.58;100.00;97212.66;5059053;28;24435;-73
2022/01/25 02:29:53;;;;;;;11.75;8.43;;;;;;;-2.55;100.00;97207.63;5073594;28;24423;-73
2022/01/25 02:32:20;;;;;;;8.20;7.25;;;;;;;-2.62;100.00;97214.28;5073284;28;24431;-73
2022/01/25 02:34:46;;;;;;;10.73;7.55;;;;;;;-2.65;100.00;97218.47;5073228;28;24426;-73
2022/01/25 02:37:15;;;;;;;13.00;7.18;;;;;;;-2.70;100.00;97223.50;5073077;28;24442;-73
2022/01/25 02:39:44;;;;;;;11.55;6.82;;;;;;;-2.70;100.00;97220.97;5073286;28;24414;-73
2022/01/25 02:42:12;;;;;;;8.68;6.63;;;;;;;-2.59;100.00;97211.81;5064962;28;24437;-73
2022/01/25 02:44:39;;;;;;;8.93;6.63;;;;;;;-2.51;100.00;97215.28;5073089;28;24526;-73
2022/01/25 02:49:51;;;;;;;9.05;7.10;;;;;;;-3.03;100.00;97216.31;5072885;28;24536;-73
2022/01/25 02:52:17;;;;;;;9.23;6.65;;;;;;;-2.98;100.00;97218.06;5073098;28;24426;-74
2022/01/25 02:54:45;;;;;;;20.70;7.23;;;;;;;-2.93;100.00;97215.59;5072964;28;24421;-73
2022/01/25 02:57:12;;;;;;;12.00;6.95;;;;;;;-2.92;100.00;97217.31;5072683;28;24449;-73
2022/01/25 02:59:38;;;;;;;8.23;6.65;;;;;;;-2.92;100.00;97210.56;5072735;28;24484;-74
2022/01/25 03:02:05;;;;;;;10.77;7.60;;;;;;;-2.82;100.00;97211.50;5072621;28;24430;-73
2022/01/25 03:04:32;;;;;;;10.60;7.95;;;;;;;-2.79;100.00;97213.22;5072825;28;24425;-74
2022/01/25 03:06:58;;;;;;;12.20;8.13;;;;;;;-2.87;100.00;97208.06;5069277;28;24442;-73
2022/01/25 03:09:25;;;;;;;11.40;8.70;;;;;;;-2.97;100.00;97207.09;5064335;28;24446;-73
2022/01/25 03:11:54;;;;;;;12.95;8.40;;;;;;;-3.23;100.00;97205.88;5072563;28;24422;-74
2022/01/25 03:14:23;;;;;;;9.40;7.47;;;;;;;-3.25;100.00;97192.38;5072495;28;24520;-74
2022/01/25 03:17:05;;;;;;;10.20;7.05;;;;;;;-3.18;100.00;97206.81;5072473;28;24453;-73
2022/01/25 03:19:48;;;;;;;9.88;7.47;;;;;;;-3.10;100.00;97201.84;5072394;28;25191;-73
2022/01/25 03:22:19;;;;;;;10.18;7.53;;;;;;;-3.08;100.00;97198.50;5072521;28;24450;-73
2022/01/25 03:24:46;;;;;;;8.88;7.32;;;;;;;-3.04;100.00;97209.53;5072636;28;24418;-73
2022/01/25 03:27:14;;;;;;;11.05;8.07;;;;;;;-3.09;100.00;97206.09;5072167;28;24422;-73
2022/01/25 03:29:40;;;;;;;12.60;8.65;;;;;;;-3.08;100.00;97198.50;5063253;28;24518;-73
2022/01/25 03:32:07;;;;;;;12.27;8.87;;;;;;;-3.04;100.00;97196.84;5052875;28;24484;-73
2022/01/25 03:34:34;;;;;;;16.55;10.18;;;;;;;-3.06;100.00;97196.00;5052185;28;24835;-73
2022/01/25 03:37:00;;;;;;;13.88;10.23;;;;;;;-3.04;100.00;97199.38;5051796;28;25166;-73
2022/01/25 03:39:27;;;;;;;14.93;9.63;;;;;;;-2.96;100.00;97195.28;5052343;28;24785;-73
2022/01/25 03:41:53;;;;;;;14.05;9.88;;;;;;;-2.69;100.00;97195.63;5052282;28;24446;-73
2022/01/25 03:44:21;;;;;;;17.30;11.15;;;;;;;-2.69;100.00;97194.78;5051982;28;24967;-73
2022/01/25 03:47:00;;;;;;;14.27;10.45;;;;;;;-2.86;100.00;97196.25;5051597;28;24419;-73
2022/01/25 03:52:12;;;;;;;21.27;10.52;;;;;;;-3.10;100.00;97197.63;5051954;28;24395;-73
2022/01/25 03:54:39;;;;;;;13.98;10.82;;;;;;;-3.21;100.00;97189.88;5051947;28;24449;-73
2022/01/25 03:57:06;;;;;;;15.90;10.27;;;;;;;-3.11;100.00;97195.94;5051531;28;24801;-73
2022/01/25 03:59:34;;;;;;;15.55;11.15;;;;;;;-3.14;100.00;97198.44;5051712;28;24430;-74
2022/01/25 04:02:00;;;;;;;20.67;12.85;;;;;;;-3.07;100.00;97196.84;5051612;28;24753;-73
2022/01/25 04:04:29;;;;;;;17.98;12.13;;;;;;;-3.16;100.00;97200.06;5051985;28;24431;-73
2022/01/25 04:06:55;;;;;;;21.27;11.77;;;;;;;-3.22;100.00;97188.19;5051485;28;24527;-72
2022/01/25 04:09:23;;;;;;;19.13;12.73;;;;;;;-3.17;100.00;97193.31;5051681;28;24419;-73
2022/01/25 04:11:50;;;;;;;16.65;12.38;;;;;;;-3.17;100.00;97198.38;5051710;28;24418;-73
2022/01/25 04:14:16;;;;;;;18.65;12.05;;;;;;;-3.20;100.00;97190.72;5051474;28;24824;-73
2022/01/25 04:16:51;;;;;;;17.67;12.77;;;;;;;-3.38;100.00;97191.31;5051061;28;24485;-73
2022/01/25 04:19:27;;;;;;;19.65;12.63;;;;;;;-3.47;100.00;97191.19;5051523;28;24466;-73
2022/01/25 04:24:55;;;;;;;14.30;9.30;;;;;;;-3.51;100.00;97195.38;5051279;28;24504;-73
2022/01/25 04:27:21;;;;;;;13.55;8.30;;;;;;;-3.43;100.00;97182.81;5050998;28;24923;-73
2022/01/25 04:29:48;;;;;;;11.38;8.75;;;;;;;-3.37;100.00;97187.97;5050957;28;24955;-73
2022/01/25 04:32:16;;;;;;;11.10;7.10;;;;;;;-3.33;100.00;97189.72;5051062;28;24940;-72
2022/01/25 04:34:46;;;;;;;10.68;8.43;;;;;;;-3.26;100.00;97183.06;5050948;28;24979;-72
2022/01/25 04:53:55;;;;;;;10.13;7.80;;;;;;;-3.35;100.00;97176.16;5109012;27;20726;-74
2022/01/25 04:56:27;;;;;;;10.55;7.75;;;;;;;-3.30;100.00;97172.03;5107932;28;24467;-74
2022/01/25 04:59:00;;;;;;;12.23;8.80;;;;;;;-3.29;100.00;97163.59;5108586;28;24428;-74
2022/01/25 05:01:27;;;;;;;11.95;8.15;;;;;;;-3.35;100.00;97163.50;5108370;28;24436;-73
2022/01/25 05:04:00;;;;;;;10.88;8.18;;;;;;;-3.53;100.00;97165.78;5108323;28;24428;-74
2022/01/25 05:06:28;;;;;;;9.90;7.78;;;;;;;-3.63;100.00;97163.94;5107894;28;25167;-73
2022/01/25 05:09:06;;;;;;;8.97;7.30;;;;;;;-3.69;100.00;97157.94;5107976;28;24433;-73
2022/01/25 05:11:35;;;;;;;7.88;6.60;;;;;;;-3.55;100.00;97155.63;5107996;28;24513;-73
2022/01/25 05:14:14;;;;;;;7.97;6.63;;;;;;;-3.66;100.00;97158.00;5108012;28;25049;-74
2022/01/25 05:16:49;;;;;;;9.90;6.93;;;;;;;-3.79;100.00;97163.69;5108024;28;24509;-73
2022/01/25 05:22:04;;;;;;;9.05;6.43;;;;;;;-3.83;100.00;97164.47;5107918;28;24439;-74
2022/01/25 05:22:26;;;;;;;10.20;7.03;;;;;;;-3.75;100.00;97175.56;5107620;28;24410;-74
2022/01/25 05:24:55;;;;;;;14.43;7.30;;;;;;;-3.56;100.00;97173.31;5108001;28;24429;-73
2022/01/25 05:27:23;;;;;;;12.80;6.97;;;;;;;-3.50;100.00;97171.75;5107584;28;24414;-74
2022/01/25 05:29:50;;;;;;;9.50;6.72;;;;;;;-3.55;100.00;97169.97;5107467;28;25029;-74
2022/01/25 05:32:17;;;;;;;9.40;7.22;;;;;;;-3.57;100.00;97174.16;5107717;28;24449;-74
2022/01/25 05:34:44;;;;;;;10.65;7.43;;;;;;;-3.60;100.00;97179.16;5107721;28;24833;-74
2022/01/25 05:37:10;;;;;;;11.03;7.13;;;;;;;-3.60;100.00;97176.63;5107305;28;24414;-74
2022/01/25 05:39:37;;;;;;;8.65;7.35;;;;;;;-3.70;100.00;97171.44;5107544;28;24418;-74
2022/01/25 05:42:29;;;;;;;9.35;8.05;;;;;;;-3.72;100.00;97168.03;5107481;28;25052;-74
2022/01/25 05:45:00;;;;;;;8.32;7.10;;;;;;;-3.98;100.00;97171.84;5107702;28;24428;-75
2022/01/25 05:47:29;;;;;;;12.60;9.15;;;;;;;-3.93;100.00;97172.75;5107323;28;24425;-76
2022/01/25 05:49:57;;;;;;;15.40;8.85;;;;;;;-4.17;100.00;97166.47;5107419;28;24444;-76
2022/01/25 05:52:24;;;;;;;10.60;8.30;;;;;;;-4.05;100.00;97170.03;5116413;28;24497;-75
2022/01/25 05:54:50;;;;;;;10.75;8.23;;;;;;;-4.16;100.00;97168.16;5127521;28;24436;-74
2022/01/25 05:57:18;;;;;;;12.73;7.97;;;;;;;-4.19;100.00;97172.31;5127676;28;24476;-73
2022/01/25 05:59:45;;;;;;;8.98;7.82;;;;;;;-4.15;100.00;97172.41;5127547;28;24421;-73
2022/01/25 06:02:17;;;;;;;11.57;7.65;;;;;;;-4.09;100.00;97171.66;5127612;28;24799;-73
2022/01/25 06:04:43;;;;;;;8.27;7.28;;;;;;;-3.95;100.00;97182.00;5116159;28;24417;-73
2022/01/25 06:07:09;;;;;;;8.68;7.78;;;;;;;-3.85;100.00;97188.94;5113396;28;24435;-73
2022/01/25 06:09:36;;;;;;;8.10;7.30;;;;;;;-3.76;100.00;97181.47;5113980;28;24437;-74
2022/01/25 06:12:03;;;;;;;8.20;7.30;;;;;;;-3.67;100.00;97181.63;5113492;28;24993;-74
2022/01/25 06:14:30;;;;;;;12.95;7.93;;;;;;;-3.63;100.00;97181.66;5113383;28;24440;-75
2022/01/25 06:16:57;;;;;;;18.60;11.23;;;;;;;-3.59;100.00;97181.75;5113086;28;24414;-75
2022/01/25 06:19:23;;;;;;;14.30;9.77;;;;;;;-3.61;100.00;97185.91;5113309;28;24832;-74
2022/01/25 06:21:50;;;;;;;18.55;10.38;;;;;;;-3.58;100.00;97182.59;5108171;28;24846;-75
2022/01/25 06:24:17;;;;;;;14.30;9.73;;;;;;;-3.62;100.00;97184.22;5102666;28;24981;-76
2022/01/25 06:26:43;;;;;;;10.97;8.43;;;;;;;-3.61;100.00;97180.00;5110664;28;24434;-74
2022/01/25 06:29:11;;;;;;;11.43;8.48;;;;;;;-3.71;100.00;97184.94;5105212;28;24463;-74
2022/01/25 06:31:39;;;;;;;11.60;8.55;;;;;;;-3.79;100.00;97188.16;5097377;28;24600;-75
2022/01/25 06:34:05;;;;;;;12.80;8.40;;;;;;;-3.77;100.00;97197.50;5110468;28;25129;-74
2022/01/25 06:36:32;;;;;;;9.52;7.63;;;;;;;-3.68;100.00;97194.25;5095734;28;24441;-74
2022/01/25 06:38:59;;;;;;;8.03;7.13;;;;;;;-3.60;100.00;97200.28;5100384;28;24487;-74
2022/01/25 06:41:25;;;;;;;8.25;7.28;;;;;;;-3.55;100.00;97193.63;5108921;28;24519;-75
2022/01/25 06:43:52;;;;;;;10.55;7.53;;;;;;;-3.53;100.00;97197.00;5100635;28;24422;-75
2022/01/25 06:46:18;;;;;;;11.47;8.30;;;;;;;-3.49;100.00;97195.38;5100209;28;25013;-75
2022/01/25 06:48:46;;;;;;;9.73;7.38;;;;;;;-3.60;100.00;97194.38;5098419;28;25009;-75
2022/01/25 06:51:13;;;;;;;9.93;7.18;;;;;;;-3.74;100.00;97204.31;5096747;28;24459;-75
2022/01/25 06:53:40;;;;;;;10.70;7.35;;;;;;;-3.85;100.00;97203.28;5104084;28;25054;-75
2022/01/25 06:56:06;;;;;;;8.98;7.57;;;;;;;-3.90;100.00;97209.09;5106367;28;24438;-74
2022/01/25 06:58:33;;;;;;;8.93;7.28;;;;;;;-4.06;100.00;97212.19;5095138;28;24437;-75
2022/01/25 07:01:00;;;;;;;9.20;6.93;;;;;;;-3.92;100.00;97213.28;5096514;28;24438;-75
2022/01/25 07:03:26;;;;;;;9.73;7.32;;;;;;;-3.79;100.00;97219.38;5105273;28;24430;-74
2022/01/25 07:05:54;;;;;;;10.50;7.10;;;;;;;-3.79;100.00;97221.91;5108006;28;24441;-74
2022/01/25 07:08:21;;;;;;;8.30;6.82;;;;;;;-3.77;100.00;97224.50;5109377;28;25005;-74
2022/01/25 07:10:47;;;;;;;8.52;6.63;;;;;;;-3.76;100.00;97224.50;5112584;28;24950;-77
2022/01/25 07:13:14;;;;;;;11.02;7.93;;;;;;;-3.78;100.00;97216.06;5110307;28;24449;-79
2022/01/25 07:15:40;;;;;;;12.73;8.45;;;;;;;-3.78;100.00;97220.25;5092347;28;24800;-81
2022/01/25 07:18:07;;;;;;;9.47;7.57;;;;;;;-3.88;100.00;97210.81;5107235;28;24518;-77
2022/01/25 07:20:33;;;;;;;9.13;7.28;;;;;;;-3.84;100.00;97215.09;5104931;28;24473;-78
2022/01/25 07:23:01;;;;;;;8.10;6.85;;;;;;;-3.74;100.00;97215.28;5095393;28;24812;-78
2022/01/25 07:25:27;;;;;;;12.70;8.90;;;;;;;-3.73;100.00;97227.09;5094930;28;24453;-77
2022/01/25 07:27:54;;;;;;;11.43;8.85;;;;;;;-3.75;100.00;97223.66;5101120;28;24441;-77
2022/01/25 07:30:20;;;;;;;13.43;10.35;;;;;;;-3.61;100.00;97231.50;5104206;28;24471;-78
2022/01/25 07:32:47;;;;;;;13.57;10.45;;;;;;;-3.51;100.00;97222.38;5097208;28;24457;-77
2022/01/25 07:35:14;;;;;;;15.27;9.93;;;;;;;-3.52;100.00;97229.13;5097785;28;24522;-82
2022/01/25 07:37:40;;;;;;;15.18;10.07;;;;;;;-3.57;100.00;97229.88;5110425;28;24438;-79
2022/01/25 07:40:10;;;;;;;13.85;9.95;;;;;;;-3.58;100.00;97223.09;5097314;28;24494;-79
2022/01/25 07:42:39;;;;;;;13.93;8.98;;;;;;;-3.42;100.00;97222.50;5102497;28;24436;-78
2022/01/25 07:45:09;;;;;;;13.93;11.07;;;;;;;-3.21;100.00;97234.66;5091503;28;24442;-79
2022/01/25 07:47:36;;;;;;;14.48;10.98;;;;;;;-3.14;100.00;97221.22;5095627;28;24519;-80
2022/01/25 07:50:04;;;;;;;17.92;11.75;;;;;;;-3.01;100.00;97223.09;5104829;28;24434;-75
2022/01/25 07:52:30;;;;;;;17.38;11.45;;;;;;;-2.95;100.00;97220.66;5090729;28;24830;-77
2022/01/25 07:54:56;;;;;;;18.37;13.03;;;;;;;-2.82;100.00;97213.19;5098927;28;24472;-79
2022/01/25 07:57:24;;;;;;;20.25;13.00;;;;;;;-2.63;100.00;97216.78;5098361;28;24438;-80
2022/01/25 07:59:51;;;;;;;13.93;11.68;;;;;;;-2.42;100.00;97216.22;5111174;28;24441;-79
2022/01/25 08:02:19;;;;;;;15.15;11.55;;;;;;;-2.18;100.00;97216.47;5101654;28;24434;-79
2022/01/25 08:04:46;;;;;;;24.60;17.02;;;;;;;-2.30;100.00;97227.34;5108192;28;24429;-79
2022/01/25 08:07:13;;;;;;;24.25;17.05;;;;;;;-2.18;100.00;97230.84;5112765;28;24445;-79
2022/01/25 08:09:40;;;;;;;25.65;15.13;;;;;;;-2.06;100.00;97234.38;5100065;28;24858;-80
2022/01/25 08:12:07;;;;;;;19.65;13.40;;;;;;;-2.03;100.00;97243.72;5098363;28;24833;-79
2022/01/25 08:14:35;;;;;;;17.42;12.23;;;;;;;-2.00;100.00;97242.06;5121080;27;24473;-80
2022/01/25 08:17:01;;;;;;;14.82;12.00;;;;;;;-1.90;100.00;97242.13;5101473;28;24495;-79
2022/01/25 08:19:28;;;;;;;13.93;11.50;;;;;;;-1.69;100.00;97249.09;5096377;28;24441;-80
2022/01/25 08:21:54;;;;;;;14.02;11.63;;;;;;;-1.51;100.00;97251.81;5112745;28;24437;-80
2022/01/25 08:24:21;;;;;;;12.95;11.35;;;;;;;-1.33;100.00;97243.47;5111902;28;24433;-80
2022/01/25 08:26:48;;;;;;;14.57;11.70;;;;;;;-1.18;100.00;97240.19;5099188;28;24484;-80
2022/01/25 08:29:15;;;;;;;19.23;10.98;;;;;;;-1.13;100.00;97239.38;5109033;28;24516;-83
2022/01/25 08:31:43;;;;;;;12.85;9.60;;;;;;;-1.02;100.00;97244.53;5116605;28;24429;-80
2022/01/25 08:34:11;;;;;;;10.73;9.38;;;;;;;-0.92;100.00;97238.66;5123657;28;24450;-81
2022/01/25 08:36:38;;;;;;;14.27;10.10;;;;;;;-0.81;100.00;97237.03;5117134;28;24430;-79
2022/01/25 08:39:06;;;;;;;22.85;13.55;;;;;;;-0.76;100.00;97237.03;5104271;28;24440;-79
2022/01/25 08:41:33;;;;;;;17.55;13.70;;;;;;;-0.79;100.00;97237.88;5113324;28;24445;-81
2022/01/25 08:43:59;;;;;;;16.40;12.48;;;;;;;-0.73;100.00;97244.69;5104862;28;24440;-79
2022/01/25 08:46:26;;;;;;;14.40;11.48;;;;;;;-0.70;100.00;97237.06;5093151;28;24430;-79
2022/01/25 08:48:54;;;;;;;13.48;10.27;;;;;;;-0.65;100.00;97232.84;5091471;28;24469;-77
2022/01/25 08:51:21;;;;;;;12.65;10.00;;;;;;;-0.59;100.00;97219.31;5091888;28;24438;-77
2022/01/25 08:53:48;;;;;;;13.93;11.40;;;;;;;-1.07;100.00;97221.63;5094947;28;24810;-77
2022/01/25 08:56:15;;;;;;;15.60;10.25;;;;;;;-1.42;100.00;97211.19;5107126;28;24449;-78
2022/01/25 08:58:42;;;;;;;14.00;11.15;;;;;;;-1.36;100.00;97213.78;5096575;28;24434;-77
2022/01/25 09:01:08;;;;;;;15.20;11.55;;;;;;;-1.42;100.00;97212.91;5092392;28;24511;-79
2022/01/25 09:03:36;;;;;;;14.73;12.80;;;;;;;-1.63;100.00;97217.00;5090188;28;24449;-77
2022/01/25 09:06:04;;;;;;;19.13;14.10;;;;;;;-1.47;100.00;97223.03;5102736;28;24487;-77
2022/01/25 09:08:32;;;;;;;13.98;11.07;;;;;;;-1.25;100.00;97224.03;5101390;28;24481;-78
2022/01/25 09:11:01;;;;;;;15.93;11.88;;;;;;;-0.76;100.00;97224.31;5106362;28;24434;-78
2022/01/25 09:13:29;;;;;;;19.00;13.23;;;;;;;-0.31;100.00;97223.66;5089840;28;24450;-78
2022/01/25 09:15:55;;;;;;;18.30;13.95;;;;;;;0.13;100.00;97222.06;5099517;28;24433;-77
2022/01/25 09:18:22;;;;;;;13.17;10.07;;;;;;;0.25;100.00;97234.78;5110001;28;24486;-77
2022/01/25 09:20:49;;;;;;;13.13;8.77;;;;;;;-0.20;100.00;97233.88;5109908;28;24437;-78
2022/01/25 09:23:18;;;;;;;14.65;9.10;;;;;;;-0.32;100.00;97227.03;5099973;28;24441;-79
2022/01/25 09:25:47;;;;;;;12.30;8.77;;;;;;;0.13;100.00;97225.44;5105266;28;24828;-78
2022/01/25 09:28:14;;;;;;;13.15;9.27;;;;;;;0.39;100.00;97220.38;5090120;28;24441;-78
2022/01/25 09:30:41;;;;;;;8.40;7.43;;;;;;;0.59;100.00;97222.06;5107498;28;24441;-78
2022/01/25 09:33:07;;;;;;;14.43;8.77;;;;;;;0.44;100.00;97228.84;5104778;28;24833;-77
2022/01/25 09:35:34;;;;;;;12.13;9.18;;;;;;;0.64;100.00;97225.47;5109141;28;24430;-77
2022/01/25 09:38:00;;;;;;;13.65;9.68;;;;;;;0.42;100.00;97227.19;5102559;28;24853;-77
2022/01/25 09:40:29;;;;;;;11.85;8.82;;;;;;;0.38;100.00;97222.94;5109825;28;24441;-77
2022/01/25 09:42:57;;;;;;;12.68;9.65;;;;;;;0.87;100.00;97220.34;5114080;28;24459;-77
2022/01/25 09:45:24;;;;;;;17.55;8.68;;;;;;;0.91;100.00;97214.38;5096603;28;24469;-77
2022/01/25 09:47:51;;;;;;;10.80;8.30;;;;;;;1.35;100.00;97205.78;5110268;28;24461;-78
2022/01/25 09:50:19;;;;;;;9.15;8.00;;;;;;;1.30;100.00;97204.91;5093517;28;24865;-79
2022/01/25 09:52:46;;;;;;;12.18;9.27;;;;;;;1.11;100.00;97214.34;5107404;28;24433;-78
2022/01/25 09:55:15;;;;;;;12.23;9.23;;;;;;;0.90;100.00;97216.09;5109499;28;24808;-78
2022/01/25 09:57:44;;;;;;;10.90;8.40;;;;;;;0.85;100.00;97215.22;5114364;28;24417;-80
2022/01/25 10:00:13;;;;;;;12.93;7.90;;;;;;;1.07;100.00;97210.09;5102932;28;25008;-78
2022/01/25 10:02:47;;;;;;;13.40;8.50;;;;;;;1.31;100.00;97211.75;5114424;28;24429;-78
2022/01/25 10:05:23;;;;;;;13.63;9.48;;;;;;;1.60;100.00;97201.44;5114991;28;24509;-78
2022/01/25 10:07:56;;;;;;;15.07;9.32;;;;;;;1.96;100.00;97212.28;5106364;28;24445;-81
2022/01/25 10:10:24;;;;;;;12.70;10.23;;;;;;;1.90;100.00;97211.47;5107652;28;24441;-76
2022/01/25 10:12:52;;;;;;;12.90;9.52;;;;;;;1.71;100.00;97212.44;5108667;28;24441;-76
2022/01/25 10:15:19;;;;;;;10.48;9.15;;;;;;;1.43;100.00;97216.78;5111692;28;24445;-77
2022/01/25 10:17:45;;;;;;;13.07;9.30;;;;;;;1.71;100.00;97209.88;5106214;28;24541;-77
2022/01/25 10:20:26;;;;;;;10.93;9.50;;;;;;;1.90;100.00;97205.53;5107771;28;24453;-77
2022/01/25 10:22:53;;;;;;;14.82;10.07;;;;;;;2.22;100.00;97202.75;5094498;28;25332;-79
2022/01/25 10:25:30;;;;;;;16.65;9.50;;;;;;;2.55;100.00;97190.56;5105708;28;24433;-78
2022/01/25 10:28:02;;;;;;;13.90;10.77;;;;;;;2.54;100.00;97197.38;5103403;28;24448;-76
2022/01/25 10:30:36;;;;;;;13.27;10.13;;;;;;;2.48;100.00;97189.75;5098619;28;24453;-77
2022/01/25 10:33:03;;;;;;;12.70;9.73;;;;;;;2.69;100.00;97191.28;5098434;28;24434;-76
2022/01/25 10:35:30;;;;;;;10.07;8.95;;;;;;;2.97;100.00;97194.44;5116187;28;24513;-77
2022/01/25 10:37:57;;;;;;;10.63;9.35;;;;;;;3.23;97.40;97196.75;5105186;28;24465;-76
2022/01/25 10:40:36;;;;;;;12.68;9.25;;;;;;;3.23;98.29;97195.91;5106373;28;24442;-78
2022/01/25 10:43:06;;;;;;;13.40;9.52;;;;;;;3.15;96.38;97198.50;5112657;27;25046;-78
2022/01/25 10:45:32;;;;;;;12.98;9.35;;;;;;;3.55;97.73;97198.91;5096546;28;24483;-77
2022/01/25 10:47:59;;;;;;;9.73;8.68;;;;;;;3.58;92.63;97203.16;5109095;28;24486;-78
2022/01/25 10:50:27;;;;;;;11.20;9.43;;;;;;;3.71;94.89;97194.44;5107960;28;24914;-78
2022/01/25 10:53:06;;;;;;;11.57;9.50;;;;;;;3.86;93.46;97198.53;5097489;28;24473;-79
2022/01/25 10:55:37;;;;;;;12.80;9.07;;;;;;;4.42;93.67;97199.41;5081560;28;24461;-78
2022/01/25 10:58:05;;;;;;;8.93;8.10;;;;;;;4.40;89.08;97205.44;5093210;28;24448;-78
2022/01/25 11:00:36;;;;;;;21.40;8.45;;;;;;;4.45;92.30;97199.38;5094073;28;24442;-80
2022/01/25 11:03:03;;;;;;;11.05;8.75;;;;;;;4.91;88.33;97192.63;5091959;28;24437;-76
2022/01/25 11:05:32;;;;;;;11.75;8.93;;;;;;;4.93;85.40;97196.00;5092999;28;24446;-76
2022/01/25 11:08:10;;;;;;;9.88;8.73;;;;;;;4.86;86.75;97190.13;5097661;28;24441;-76
2022/01/25 11:10:38;;;;;;;10.60;8.15;;;;;;;4.80;86.72;97185.09;5115209;28;24449;-75
2022/01/25 11:13:21;;;;;;;9.30;8.13;;;;;;;4.97;85.69;97183.09;5103465;28;24492;-75
2022/01/25 11:15:48;;;;;;;9.35;8.35;;;;;;;5.37;89.60;97186.63;5109456;28;24460;-74
2022/01/25 11:18:15;;;;;;;11.87;9.20;;;;;;;5.23;86.27;97182.59;5096025;28;24526;-74
2022/01/25 11:20:41;;;;;;;9.37;8.47;;;;;;;4.74;85.88;97191.16;5096940;28;24505;-75
2022/01/25 11:23:08;;;;;;;11.57;8.70;;;;;;;4.65;86.92;97187.94;5117689;28;24445;-75
2022/01/25 11:25:36;;;;;;;11.75;8.40;;;;;;;5.17;89.48;97180.16;5108379;28;25033;-74
2022/01/25 11:28:03;;;;;;;10.25;8.38;;;;;;;4.94;91.03;97193.41;5101716;28;24446;-75
2022/01/25 11:30:31;;;;;;;8.43;7.63;;;;;;;4.71;89.07;97187.81;5103875;28;24438;-75
2022/01/25 11:32:59;;;;;;;12.13;8.02;;;;;;;4.44;91.45;97186.56;5108035;28;24513;-75
2022/01/25 11:35:27;;;;;;;11.07;7.43;;;;;;;4.11;90.89;97181.06;5099424;28;24446;-75
2022/01/25 11:37:55;;;;;;;12.38;8.50;;;;;;;3.81;94.94;97172.94;5110497;28;24446;-75
2022/01/25 11:40:25;;;;;;;9.98;8.98;;;;;;;4.30;97.49;97166.25;5111958;28;25033;-75
2022/01/25 11:42:53;;;;;;;11.68;10.40;;;;;;;4.82;99.94;97170.50;5113077;28;25261;-75
2022/01/25 11:45:21;;;;;;;11.60;10.40;;;;;;;4.38;100.00;97171.28;5114950;28;24441;-75
2022/01/25 11:47:52;;;;;;;17.25;11.73;;;;;;;5.03;100.00;97159.00;5114857;28;24432;-76
2022/01/25 11:50:19;;;;;;;16.08;11.43;;;;;;;5.24;100.00;97161.19;5115347;28;24433;-75
2022/01/25 11:52:50;;;;;;;12.85;11.50;;;;;;;5.24;100.00;97160.34;5114282;28;24421;-75
2022/01/25 11:55:23;;;;;;;14.75;11.25;;;;;;;5.18;98.94;97161.28;5109892;28;24457;-75
2022/01/25 11:57:54;;;;;;;13.88;11.60;;;;;;;4.93;100.00;97154.91;5093988;28;24406;-75
2022/01/25 12:00:21;;;;;;;15.00;11.50;;;;;;;4.96;97.98;97155.69;5092887;28;24434;-75
2022/01/25 12:02:51;;;;;;;15.55;11.63;;;;;;;5.01;100.00;97164.19;5092678;28;24434;-75
2022/01/25 12:05:25;;;;;;;26.20;11.48;;;;;;;5.22;100.00;97152.63;5093122;28;24479;-74
2022/01/25 12:08:06;;;;;;;20.10;11.95;;;;;;;5.30;98.11;97155.06;5097043;28;24429;-75
2022/01/25 12:10:36;;;;;;;19.33;11.77;;;;;;;5.36;100.00;97152.38;5113759;28;24474;-75
2022/01/25 12:13:10;;;;;;;13.47;11.83;;;;;;;5.36;100.00;97160.09;5113291;28;24426;-75
2022/01/25 12:15:37;;;;;;;13.80;11.73;;;;;;;5.39;100.00;97147.19;5112858;28;24891;-75
2022/01/25 12:18:05;;;;;;;15.07;11.38;;;;;;;5.42;100.00;97149.69;5113214;28;24425;-75
2022/01/25 12:20:31;;;;;;;12.90;11.18;;;;;;;5.18;100.00;97145.03;5113554;28;24490;-75
2022/01/25 12:23:10;;;;;;;14.70;12.13;;;;;;;5.41;100.00;97142.00;5113774;28;24433;-75
2022/01/25 12:25:49;;;;;;;15.05;12.40;;;;;;;5.34;100.00;97143.88;5112768;28;24464;-75
2022/01/25 12:28:23;;;;;;;17.80;11.73;;;;;;;5.18;100.00;97143.31;5113654;28;24421;-75
2022/01/25 12:30:50;;;;;;;16.80;11.88;;;;;;;5.33;100.00;97144.72;5112341;28;24487;-75
2022/01/25 12:33:23;;;;;;;14.55;11.85;;;;;;;5.33;100.00;97135.28;5113165;28;25165;-75
2022/01/25 12:35:52;;;;;;;13.40;11.40;;;;;;;5.39;100.00;97136.06;5113613;28;24441;-75